sensor_id;sensor_type;location;lat;lon;timestamp;P1;durP1;ratioP1;P2;durP2;ratioP2
49223;SDS011;35050;51.316;5.994;2023-09-19T00:01:39;6.32;;;2.00;;
49223;SDS011;35050;51.316;5.994;2023-09-19T00:04:05;5.10;;;2.03;;
49223;SDS011;35050;51.316;5.994;2023-09-19T00:06:38;10.98;;;2.17;;
49223;SDS011;35050;51.316;5.994;2023-09-19T00:09:04;10.80;;;3.03;;
49223;SDS011;35050;51.316;5.994;2023-09-19T00:11:30;7.68;;;2.28;;
49223;SDS011;35050;51.316;5.994;2023-09-19T00:13:56;8.95;;;1.90;;
49223;SDS011;35050;51.316;5.994;2023-09-19T00:16:24;8.15;;;1.80;;
49223;SDS011;35050;51.316;5.994;2023-09-19T00:18:50;6.93;;;2.13;;
49223;SDS011;35050;51.316;5.994;2023-09-19T00:21:16;9.27;;;2.28;;
49223;SDS011;35050;51.316;5.994;2023-09-19T00:23:44;6.18;;;1.90;;
49223;SDS011;35050;51.316;5.994;2023-09-19T00:26:10;7.97;;;2.33;;
49223;SDS011;35050;51.316;5.994;2023-09-19T00:28:35;6.72;;;2.25;;
49223;SDS011;35050;51.316;5.994;2023-09-19T00:31:01;10.98;;;2.38;;
49223;SDS011;35050;51.316;5.994;2023-09-19T00:33:27;8.63;;;2.58;;
49223;SDS011;35050;51.316;5.994;2023-09-19T00:35:54;12.52;;;3.40;;
49223;SDS011;35050;51.316;5.994;2023-09-19T00:38:21;7.53;;;2.00;;
49223;SDS011;35050;51.316;5.994;2023-09-19T00:40:51;8.65;;;2.40;;
49223;SDS011;35050;51.316;5.994;2023-09-19T00:43:18;11.38;;;2.63;;
49223;SDS011;35050;51.316;5.994;2023-09-19T00:45:45;9.20;;;2.55;;
49223;SDS011;35050;51.316;5.994;2023-09-19T00:48:13;8.93;;;2.50;;
49223;SDS011;35050;51.316;5.994;2023-09-19T00:50:40;10.23;;;2.05;;
49223;SDS011;35050;51.316;5.994;2023-09-19T00:53:08;7.32;;;2.50;;
49223;SDS011;35050;51.316;5.994;2023-09-19T00:55:38;12.10;;;2.15;;
49223;SDS011;35050;51.316;5.994;2023-09-19T00:58:05;7.75;;;1.98;;
49223;SDS011;35050;51.316;5.994;2023-09-19T01:00:31;8.70;;;2.28;;
49223;SDS011;35050;51.316;5.994;2023-09-19T01:03:00;7.78;;;2.30;;
49223;SDS011;35050;51.316;5.994;2023-09-19T01:05:29;6.53;;;1.85;;
49223;SDS011;35050;51.316;5.994;2023-09-19T01:07:55;5.50;;;1.95;;
49223;SDS011;35050;51.316;5.994;2023-09-19T01:10:20;10.20;;;2.20;;
49223;SDS011;35050;51.316;5.994;2023-09-19T01:15:49;8.63;;;2.20;;
49223;SDS011;35050;51.316;5.994;2023-09-19T01:29:51;11.70;;;2.58;;
49223;SDS011;35050;51.316;5.994;2023-09-19T01:32:19;7.50;;;2.33;;
49223;SDS011;35050;51.316;5.994;2023-09-19T01:37:16;8.32;;;2.30;;
49223;SDS011;35050;51.316;5.994;2023-09-19T01:39:49;6.68;;;1.70;;
49223;SDS011;35050;51.316;5.994;2023-09-19T01:45:11;6.80;;;2.17;;
49223;SDS011;35050;51.316;5.994;2023-09-19T01:47:50;8.02;;;2.58;;
49223;SDS011;35050;51.316;5.994;2023-09-19T01:50:29;7.28;;;2.25;;
49223;SDS011;35050;51.316;5.994;2023-09-19T01:55:55;6.07;;;2.00;;
49223;SDS011;35050;51.316;5.994;2023-09-19T02:01:10;10.25;;;2.10;;
49223;SDS011;35050;51.316;5.994;2023-09-19T02:03:39;10.95;;;2.33;;
49223;SDS011;35050;51.316;5.994;2023-09-19T02:06:05;10.65;;;1.95;;
49223;SDS011;35050;51.316;5.994;2023-09-19T02:08:36;8.38;;;2.10;;
49223;SDS011;35050;51.316;5.994;2023-09-19T02:11:02;10.35;;;2.00;;
49223;SDS011;35050;51.316;5.994;2023-09-19T02:13:28;7.50;;;2.20;;
49223;SDS011;35050;51.316;5.994;2023-09-19T02:15:56;6.30;;;1.77;;
49223;SDS011;35050;51.316;5.994;2023-09-19T02:18:22;8.35;;;2.33;;
49223;SDS011;35050;51.316;5.994;2023-09-19T02:20:48;6.00;;;1.80;;
49223;SDS011;35050;51.316;5.994;2023-09-19T02:23:14;5.00;;;1.70;;
49223;SDS011;35050;51.316;5.994;2023-09-19T02:25:40;8.93;;;2.25;;
49223;SDS011;35050;51.316;5.994;2023-09-19T02:28:08;7.53;;;2.00;;
49223;SDS011;35050;51.316;5.994;2023-09-19T02:30:34;8.35;;;2.25;;
49223;SDS011;35050;51.316;5.994;2023-09-19T02:33:01;9.52;;;2.25;;
49223;SDS011;35050;51.316;5.994;2023-09-19T02:35:29;8.35;;;2.55;;
49223;SDS011;35050;51.316;5.994;2023-09-19T02:38:00;8.63;;;1.85;;
49223;SDS011;35050;51.316;5.994;2023-09-19T02:40:26;6.22;;;2.10;;
49223;SDS011;35050;51.316;5.994;2023-09-19T02:42:53;7.43;;;1.88;;
49223;SDS011;35050;51.316;5.994;2023-09-19T02:45:19;5.45;;;1.90;;
49223;SDS011;35050;51.316;5.994;2023-09-19T02:47:46;8.63;;;1.98;;
49223;SDS011;35050;51.316;5.994;2023-09-19T02:50:12;6.68;;;2.53;;
49223;SDS011;35050;51.316;5.994;2023-09-19T02:52:41;8.90;;;3.13;;
49223;SDS011;35050;51.316;5.994;2023-09-19T02:55:14;6.30;;;2.80;;
49223;SDS011;35050;51.316;5.994;2023-09-19T02:57:49;9.32;;;1.80;;
49223;SDS011;35050;51.316;5.994;2023-09-19T03:00:16;6.65;;;2.13;;
49223;SDS011;35050;51.316;5.994;2023-09-19T03:02:46;8.02;;;1.90;;
49223;SDS011;35050;51.316;5.994;2023-09-19T03:05:15;10.35;;;1.83;;
49223;SDS011;35050;51.316;5.994;2023-09-19T03:07:41;9.55;;;2.20;;
49223;SDS011;35050;51.316;5.994;2023-09-19T03:10:08;9.02;;;1.70;;
49223;SDS011;35050;51.316;5.994;2023-09-19T03:12:34;5.03;;;1.48;;
49223;SDS011;35050;51.316;5.994;2023-09-19T03:15:00;4.10;;;1.50;;
49223;SDS011;35050;51.316;5.994;2023-09-19T03:17:27;7.78;;;2.00;;
49223;SDS011;35050;51.316;5.994;2023-09-19T03:19:53;8.23;;;2.20;;
49223;SDS011;35050;51.316;5.994;2023-09-19T03:22:19;8.45;;;2.15;;
49223;SDS011;35050;51.316;5.994;2023-09-19T03:24:45;8.98;;;2.63;;
49223;SDS011;35050;51.316;5.994;2023-09-19T03:27:12;7.32;;;1.95;;
49223;SDS011;35050;51.316;5.994;2023-09-19T03:29:41;7.72;;;2.08;;
49223;SDS011;35050;51.316;5.994;2023-09-19T03:32:07;8.63;;;2.03;;
49223;SDS011;35050;51.316;5.994;2023-09-19T03:34:35;5.15;;;1.90;;
49223;SDS011;35050;51.316;5.994;2023-09-19T03:37:05;4.47;;;1.50;;
49223;SDS011;35050;51.316;5.994;2023-09-19T03:39:31;5.60;;;1.90;;
49223;SDS011;35050;51.316;5.994;2023-09-19T03:41:57;6.80;;;1.77;;
49223;SDS011;35050;51.316;5.994;2023-09-19T03:44:23;8.13;;;1.83;;
49223;SDS011;35050;51.316;5.994;2023-09-19T03:46:48;8.93;;;1.75;;
49223;SDS011;35050;51.316;5.994;2023-09-19T03:49:14;7.30;;;1.60;;
49223;SDS011;35050;51.316;5.994;2023-09-19T03:51:40;6.90;;;1.90;;
49223;SDS011;35050;51.316;5.994;2023-09-19T03:54:06;5.20;;;1.80;;
49223;SDS011;35050;51.316;5.994;2023-09-19T03:56:32;6.18;;;2.00;;
49223;SDS011;35050;51.316;5.994;2023-09-19T03:58:58;7.38;;;2.42;;
49223;SDS011;35050;51.316;5.994;2023-09-19T04:01:24;9.60;;;2.28;;
49223;SDS011;35050;51.316;5.994;2023-09-19T04:03:50;5.00;;;1.80;;
49223;SDS011;35050;51.316;5.994;2023-09-19T04:06:18;6.40;;;1.95;;
49223;SDS011;35050;51.316;5.994;2023-09-19T04:08:44;5.80;;;1.70;;
49223;SDS011;35050;51.316;5.994;2023-09-19T04:11:11;7.72;;;1.67;;
49223;SDS011;35050;51.316;5.994;2023-09-19T04:13:37;5.22;;;1.77;;
49223;SDS011;35050;51.316;5.994;2023-09-19T04:16:02;8.85;;;1.95;;
49223;SDS011;35050;51.316;5.994;2023-09-19T04:18:35;6.15;;;1.85;;
49223;SDS011;35050;51.316;5.994;2023-09-19T04:21:03;11.98;;;2.83;;
49223;SDS011;35050;51.316;5.994;2023-09-19T04:23:30;8.02;;;2.20;;
49223;SDS011;35050;51.316;5.994;2023-09-19T04:25:57;9.38;;;2.28;;
49223;SDS011;35050;51.316;5.994;2023-09-19T04:28:22;8.30;;;2.05;;
49223;SDS011;35050;51.316;5.994;2023-09-19T04:30:49;6.65;;;2.13;;
49223;SDS011;35050;51.316;5.994;2023-09-19T04:33:15;7.88;;;1.85;;
49223;SDS011;35050;51.316;5.994;2023-09-19T04:35:41;5.25;;;1.92;;
49223;SDS011;35050;51.316;5.994;2023-09-19T04:38:07;11.63;;;2.35;;
49223;SDS011;35050;51.316;5.994;2023-09-19T04:40:33;4.65;;;1.90;;
49223;SDS011;35050;51.316;5.994;2023-09-19T04:42:59;10.20;;;1.90;;
49223;SDS011;35050;51.316;5.994;2023-09-19T04:45:26;7.18;;;2.30;;
49223;SDS011;35050;51.316;5.994;2023-09-19T04:47:53;8.07;;;2.20;;
49223;SDS011;35050;51.316;5.994;2023-09-19T04:50:19;10.07;;;3.00;;
49223;SDS011;35050;51.316;5.994;2023-09-19T04:52:48;7.05;;;2.40;;
49223;SDS011;35050;51.316;5.994;2023-09-19T04:55:16;8.25;;;2.00;;
49223;SDS011;35050;51.316;5.994;2023-09-19T04:57:46;8.88;;;2.40;;
49223;SDS011;35050;51.316;5.994;2023-09-19T05:00:13;8.65;;;3.03;;
49223;SDS011;35050;51.316;5.994;2023-09-19T05:02:41;11.35;;;2.30;;
49223;SDS011;35050;51.316;5.994;2023-09-19T05:05:07;8.50;;;2.30;;
49223;SDS011;35050;51.316;5.994;2023-09-19T05:07:35;11.38;;;2.97;;
49223;SDS011;35050;51.316;5.994;2023-09-19T05:10:01;9.82;;;2.13;;
49223;SDS011;35050;51.316;5.994;2023-09-19T05:12:30;10.80;;;2.20;;
49223;SDS011;35050;51.316;5.994;2023-09-19T05:14:59;6.10;;;1.98;;
49223;SDS011;35050;51.316;5.994;2023-09-19T05:17:26;6.88;;;2.25;;
49223;SDS011;35050;51.316;5.994;2023-09-19T05:19:52;9.23;;;2.50;;
49223;SDS011;35050;51.316;5.994;2023-09-19T05:22:18;10.77;;;2.30;;
49223;SDS011;35050;51.316;5.994;2023-09-19T05:24:43;14.40;;;2.33;;
49223;SDS011;35050;51.316;5.994;2023-09-19T05:27:13;7.50;;;2.10;;
49223;SDS011;35050;51.316;5.994;2023-09-19T05:29:42;12.32;;;2.53;;
49223;SDS011;35050;51.316;5.994;2023-09-19T05:32:09;6.40;;;2.13;;
49223;SDS011;35050;51.316;5.994;2023-09-19T05:34:35;8.68;;;3.08;;
49223;SDS011;35050;51.316;5.994;2023-09-19T05:37:01;9.60;;;2.00;;
49223;SDS011;35050;51.316;5.994;2023-09-19T05:39:28;7.63;;;2.45;;
49223;SDS011;35050;51.316;5.994;2023-09-19T05:41:54;11.82;;;2.75;;
49223;SDS011;35050;51.316;5.994;2023-09-19T05:44:22;9.45;;;2.53;;
49223;SDS011;35050;51.316;5.994;2023-09-19T05:46:47;9.52;;;2.45;;
49223;SDS011;35050;51.316;5.994;2023-09-19T05:49:13;9.50;;;2.55;;
49223;SDS011;35050;51.316;5.994;2023-09-19T05:51:39;8.50;;;2.33;;
49223;SDS011;35050;51.316;5.994;2023-09-19T05:54:05;10.95;;;2.20;;
49223;SDS011;35050;51.316;5.994;2023-09-19T05:56:30;7.20;;;1.60;;
49223;SDS011;35050;51.316;5.994;2023-09-19T05:58:56;7.82;;;2.30;;
49223;SDS011;35050;51.316;5.994;2023-09-19T06:01:21;8.70;;;2.10;;
49223;SDS011;35050;51.316;5.994;2023-09-19T06:03:47;10.07;;;2.53;;
49223;SDS011;35050;51.316;5.994;2023-09-19T06:06:13;5.45;;;2.13;;
49223;SDS011;35050;51.316;5.994;2023-09-19T06:08:39;7.57;;;1.92;;
49223;SDS011;35050;51.316;5.994;2023-09-19T06:11:05;6.32;;;1.98;;
49223;SDS011;35050;51.316;5.994;2023-09-19T06:13:34;8.27;;;2.45;;
49223;SDS011;35050;51.316;5.994;2023-09-19T06:16:00;8.40;;;2.40;;
49223;SDS011;35050;51.316;5.994;2023-09-19T06:18:30;12.25;;;2.30;;
49223;SDS011;35050;51.316;5.994;2023-09-19T06:20:58;8.10;;;3.22;;
49223;SDS011;35050;51.316;5.994;2023-09-19T06:23:25;9.20;;;2.10;;
49223;SDS011;35050;51.316;5.994;2023-09-19T06:25:54;9.68;;;2.72;;
49223;SDS011;35050;51.316;5.994;2023-09-19T06:28:19;10.45;;;2.20;;
49223;SDS011;35050;51.316;5.994;2023-09-19T06:30:49;9.80;;;2.28;;
49223;SDS011;35050;51.316;5.994;2023-09-19T06:33:15;5.93;;;1.90;;
49223;SDS011;35050;51.316;5.994;2023-09-19T06:35:42;9.77;;;2.40;;
49223;SDS011;35050;51.316;5.994;2023-09-19T06:38:09;10.95;;;2.25;;
49223;SDS011;35050;51.316;5.994;2023-09-19T06:40:38;8.82;;;2.13;;
49223;SDS011;35050;51.316;5.994;2023-09-19T06:43:04;9.43;;;1.92;;
49223;SDS011;35050;51.316;5.994;2023-09-19T06:45:30;7.22;;;1.92;;
49223;SDS011;35050;51.316;5.994;2023-09-19T06:47:57;7.60;;;2.35;;
49223;SDS011;35050;51.316;5.994;2023-09-19T06:50:23;7.93;;;2.08;;
49223;SDS011;35050;51.316;5.994;2023-09-19T06:52:58;12.18;;;2.60;;
49223;SDS011;35050;51.316;5.994;2023-09-19T06:55:24;7.82;;;2.00;;
49223;SDS011;35050;51.316;5.994;2023-09-19T06:57:53;7.88;;;2.10;;
49223;SDS011;35050;51.316;5.994;2023-09-19T07:00:19;9.25;;;2.20;;
49223;SDS011;35050;51.316;5.994;2023-09-19T07:02:57;11.10;;;2.88;;
49223;SDS011;35050;51.316;5.994;2023-09-19T07:05:25;9.93;;;2.35;;
49223;SDS011;35050;51.316;5.994;2023-09-19T07:07:57;9.30;;;2.55;;
49223;SDS011;35050;51.316;5.994;2023-09-19T07:10:24;7.72;;;2.50;;
49223;SDS011;35050;51.316;5.994;2023-09-19T07:12:58;10.25;;;2.90;;
49223;SDS011;35050;51.316;5.994;2023-09-19T07:15:27;6.88;;;2.00;;
49223;SDS011;35050;51.316;5.994;2023-09-19T07:17:56;7.53;;;1.92;;
49223;SDS011;35050;51.316;5.994;2023-09-19T07:20:22;8.98;;;2.05;;
49223;SDS011;35050;51.316;5.994;2023-09-19T07:22:52;9.68;;;2.10;;
49223;SDS011;35050;51.316;5.994;2023-09-19T07:25:19;8.93;;;1.92;;
49223;SDS011;35050;51.316;5.994;2023-09-19T07:27:46;10.60;;;2.17;;
49223;SDS011;35050;51.316;5.994;2023-09-19T07:30:11;5.65;;;2.03;;
49223;SDS011;35050;51.316;5.994;2023-09-19T07:32:37;7.63;;;2.17;;
49223;SDS011;35050;51.316;5.994;2023-09-19T07:35:04;6.63;;;2.00;;
49223;SDS011;35050;51.316;5.994;2023-09-19T07:37:33;10.77;;;2.63;;
49223;SDS011;35050;51.316;5.994;2023-09-19T07:39:59;8.70;;;2.30;;
49223;SDS011;35050;51.316;5.994;2023-09-19T07:42:34;5.53;;;1.90;;
49223;SDS011;35050;51.316;5.994;2023-09-19T07:45:03;8.00;;;2.22;;
49223;SDS011;35050;51.316;5.994;2023-09-19T07:47:30;8.27;;;2.38;;
49223;SDS011;35050;51.316;5.994;2023-09-19T07:49:57;10.40;;;2.45;;
49223;SDS011;35050;51.316;5.994;2023-09-19T07:52:24;9.57;;;2.20;;
49223;SDS011;35050;51.316;5.994;2023-09-19T07:54:49;7.35;;;2.35;;
49223;SDS011;35050;51.316;5.994;2023-09-19T07:57:15;7.32;;;2.53;;
49223;SDS011;35050;51.316;5.994;2023-09-19T07:59:41;10.85;;;2.38;;
49223;SDS011;35050;51.316;5.994;2023-09-19T08:02:07;12.40;;;2.88;;
49223;SDS011;35050;51.316;5.994;2023-09-19T08:04:40;7.88;;;2.35;;
49223;SDS011;35050;51.316;5.994;2023-09-19T08:07:11;7.40;;;2.17;;
49223;SDS011;35050;51.316;5.994;2023-09-19T08:09:37;10.02;;;2.58;;
49223;SDS011;35050;51.316;5.994;2023-09-19T08:12:03;11.10;;;2.67;;
49223;SDS011;35050;51.316;5.994;2023-09-19T08:14:36;7.57;;;2.22;;
49223;SDS011;35050;51.316;5.994;2023-09-19T08:17:03;8.43;;;2.63;;
49223;SDS011;35050;51.316;5.994;2023-09-19T08:19:33;8.57;;;2.85;;
49223;SDS011;35050;51.316;5.994;2023-09-19T08:21:58;8.38;;;2.45;;
49223;SDS011;35050;51.316;5.994;2023-09-19T08:24:27;7.20;;;2.20;;
49223;SDS011;35050;51.316;5.994;2023-09-19T08:26:54;7.97;;;2.75;;
49223;SDS011;35050;51.316;5.994;2023-09-19T08:29:21;6.63;;;1.98;;
49223;SDS011;35050;51.316;5.994;2023-09-19T08:31:52;8.95;;;2.30;;
49223;SDS011;35050;51.316;5.994;2023-09-19T08:34:25;7.80;;;2.10;;
49223;SDS011;35050;51.316;5.994;2023-09-19T08:36:51;6.68;;;2.03;;
49223;SDS011;35050;51.316;5.994;2023-09-19T08:39:23;11.15;;;2.47;;
49223;SDS011;35050;51.316;5.994;2023-09-19T08:41:49;8.68;;;2.42;;
49223;SDS011;35050;51.316;5.994;2023-09-19T08:44:21;7.18;;;2.38;;
49223;SDS011;35050;51.316;5.994;2023-09-19T08:46:47;6.55;;;2.78;;
49223;SDS011;35050;51.316;5.994;2023-09-19T08:49:24;7.45;;;2.20;;
49223;SDS011;35050;51.316;5.994;2023-09-19T08:54:35;7.47;;;2.60;;
49223;SDS011;35050;51.316;5.994;2023-09-19T08:57:06;9.63;;;2.78;;
49223;SDS011;35050;51.316;5.994;2023-09-19T08:59:39;9.93;;;2.25;;
49223;SDS011;35050;51.316;5.994;2023-09-19T09:02:10;7.60;;;2.17;;
49223;SDS011;35050;51.316;5.994;2023-09-19T09:04:39;7.18;;;2.35;;
49223;SDS011;35050;51.316;5.994;2023-09-19T09:07:09;9.63;;;2.40;;
49223;SDS011;35050;51.316;5.994;2023-09-19T09:09:39;8.15;;;2.70;;
49223;SDS011;35050;51.316;5.994;2023-09-19T09:12:16;6.95;;;2.05;;
49223;SDS011;35050;51.316;5.994;2023-09-19T09:14:45;10.88;;;3.47;;
49223;SDS011;35050;51.316;5.994;2023-09-19T09:17:13;35.40;;;9.05;;
49223;SDS011;35050;51.316;5.994;2023-09-19T09:19:40;9.82;;;3.17;;
49223;SDS011;35050;51.316;5.994;2023-09-19T09:22:10;14.55;;;3.63;;
49223;SDS011;35050;51.316;5.994;2023-09-19T09:24:37;8.77;;;3.60;;
49223;SDS011;35050;51.316;5.994;2023-09-19T09:27:15;10.77;;;3.05;;
49223;SDS011;35050;51.316;5.994;2023-09-19T09:29:42;8.70;;;2.55;;
49223;SDS011;35050;51.316;5.994;2023-09-19T09:34:50;7.13;;;2.55;;
49223;SDS011;35050;51.316;5.994;2023-09-19T09:37:17;11.00;;;2.50;;
49223;SDS011;35050;51.316;5.994;2023-09-19T09:40:02;7.38;;;2.30;;
49223;SDS011;35050;51.316;5.994;2023-09-19T09:42:40;7.10;;;2.15;;
49223;SDS011;35050;51.316;5.994;2023-09-19T09:48:02;7.03;;;2.20;;
49223;SDS011;35050;51.316;5.994;2023-09-19T09:50:46;8.05;;;2.55;;
49223;SDS011;35050;51.316;5.994;2023-09-19T09:53:22;6.80;;;2.08;;
49223;SDS011;35050;51.316;5.994;2023-09-19T09:56:04;8.65;;;2.25;;
49223;SDS011;35050;51.316;5.994;2023-09-19T09:58:34;7.65;;;2.20;;
49223;SDS011;35050;51.316;5.994;2023-09-19T10:01:02;10.13;;;2.60;;
49223;SDS011;35050;51.316;5.994;2023-09-19T10:06:04;4.72;;;1.92;;
49223;SDS011;35050;51.316;5.994;2023-09-19T10:09:07;5.38;;;2.20;;
49223;SDS011;35050;51.316;5.994;2023-09-19T10:11:35;7.43;;;2.20;;
49223;SDS011;35050;51.316;5.994;2023-09-19T10:14:14;6.97;;;2.05;;
49223;SDS011;35050;51.316;5.994;2023-09-19T10:16:47;10.10;;;2.47;;
49223;SDS011;35050;51.316;5.994;2023-09-19T10:19:15;7.80;;;2.15;;
49223;SDS011;35050;51.316;5.994;2023-09-19T10:21:48;6.82;;;2.13;;
49223;SDS011;35050;51.316;5.994;2023-09-19T10:24:15;7.82;;;2.10;;
49223;SDS011;35050;51.316;5.994;2023-09-19T10:26:43;8.23;;;2.45;;
49223;SDS011;35050;51.316;5.994;2023-09-19T10:29:10;7.80;;;1.98;;
49223;SDS011;35050;51.316;5.994;2023-09-19T10:31:39;5.50;;;1.83;;
49223;SDS011;35050;51.316;5.994;2023-09-19T10:34:12;9.63;;;2.78;;
49223;SDS011;35050;51.316;5.994;2023-09-19T10:36:43;5.68;;;2.20;;
49223;SDS011;35050;51.316;5.994;2023-09-19T10:39:10;8.65;;;2.67;;
49223;SDS011;35050;51.316;5.994;2023-09-19T10:41:47;10.45;;;3.53;;
49223;SDS011;35050;51.316;5.994;2023-09-19T10:44:19;9.57;;;2.80;;
49223;SDS011;35050;51.316;5.994;2023-09-19T10:46:48;6.88;;;2.47;;
49223;SDS011;35050;51.316;5.994;2023-09-19T10:49:15;5.43;;;1.95;;
49223;SDS011;35050;51.316;5.994;2023-09-19T10:51:41;6.20;;;2.00;;
49223;SDS011;35050;51.316;5.994;2023-09-19T10:54:10;8.00;;;2.50;;
49223;SDS011;35050;51.316;5.994;2023-09-19T10:56:39;7.88;;;2.40;;
49223;SDS011;35050;51.316;5.994;2023-09-19T11:01:59;9.63;;;2.50;;
49223;SDS011;35050;51.316;5.994;2023-09-19T11:04:29;7.70;;;2.38;;
49223;SDS011;35050;51.316;5.994;2023-09-19T11:07:05;6.85;;;2.10;;
49223;SDS011;35050;51.316;5.994;2023-09-19T11:09:55;8.93;;;2.35;;
49223;SDS011;35050;51.316;5.994;2023-09-19T11:15:01;9.18;;;2.25;;
49223;SDS011;35050;51.316;5.994;2023-09-19T11:17:36;7.83;;;2.30;;
49223;SDS011;35050;51.316;5.994;2023-09-19T11:20:18;8.38;;;2.40;;
49223;SDS011;35050;51.316;5.994;2023-09-19T11:30:34;5.10;;;2.00;;
49223;SDS011;35050;51.316;5.994;2023-09-19T11:36:11;6.88;;;2.25;;
49223;SDS011;35050;51.316;5.994;2023-09-19T11:43:46;6.65;;;2.05;;
49223;SDS011;35050;51.316;5.994;2023-09-19T11:46:17;8.52;;;2.10;;
49223;SDS011;35050;51.316;5.994;2023-09-19T11:48:47;4.35;;;1.73;;
49223;SDS011;35050;51.316;5.994;2023-09-19T11:51:15;5.68;;;2.08;;
49223;SDS011;35050;51.316;5.994;2023-09-19T11:53:53;5.93;;;1.95;;
49223;SDS011;35050;51.316;5.994;2023-09-19T11:56:21;7.05;;;2.22;;
49223;SDS011;35050;51.316;5.994;2023-09-19T11:58:49;13.55;;;2.00;;
49223;SDS011;35050;51.316;5.994;2023-09-19T12:01:23;4.35;;;1.67;;
49223;SDS011;35050;51.316;5.994;2023-09-19T12:03:54;5.55;;;1.55;;
49223;SDS011;35050;51.316;5.994;2023-09-19T12:06:22;7.57;;;1.55;;
49223;SDS011;35050;51.316;5.994;2023-09-19T12:08:49;6.88;;;1.88;;
49223;SDS011;35050;51.316;5.994;2023-09-19T12:11:16;4.53;;;1.40;;
49223;SDS011;35050;51.316;5.994;2023-09-19T12:13:43;4.22;;;1.40;;
49223;SDS011;35050;51.316;5.994;2023-09-19T12:16:13;3.75;;;1.65;;
49223;SDS011;35050;51.316;5.994;2023-09-19T12:18:40;6.00;;;1.65;;
49223;SDS011;35050;51.316;5.994;2023-09-19T12:21:23;4.05;;;1.25;;
49223;SDS011;35050;51.316;5.994;2023-09-19T12:26:40;3.60;;;1.42;;
49223;SDS011;35050;51.316;5.994;2023-09-19T12:29:16;2.83;;;1.30;;
49223;SDS011;35050;51.316;5.994;2023-09-19T12:31:47;3.40;;;1.40;;
49223;SDS011;35050;51.316;5.994;2023-09-19T12:34:20;3.95;;;1.40;;
49223;SDS011;35050;51.316;5.994;2023-09-19T12:36:47;8.20;;;2.05;;
49223;SDS011;35050;51.316;5.994;2023-09-19T12:39:23;7.20;;;1.33;;
49223;SDS011;35050;51.316;5.994;2023-09-19T12:41:50;3.15;;;1.30;;
49223;SDS011;35050;51.316;5.994;2023-09-19T12:44:18;4.05;;;1.35;;
49223;SDS011;35050;51.316;5.994;2023-09-19T12:46:44;6.55;;;1.73;;
49223;SDS011;35050;51.316;5.994;2023-09-19T12:49:17;5.00;;;1.63;;
49223;SDS011;35050;51.316;5.994;2023-09-19T12:51:43;2.83;;;1.33;;
49223;SDS011;35050;51.316;5.994;2023-09-19T12:54:10;4.80;;;1.20;;
49223;SDS011;35050;51.316;5.994;2023-09-19T12:56:39;4.78;;;1.17;;
49223;SDS011;35050;51.316;5.994;2023-09-19T12:59:09;5.72;;;1.10;;
49223;SDS011;35050;51.316;5.994;2023-09-19T13:01:42;2.50;;;1.08;;
49223;SDS011;35050;51.316;5.994;2023-09-19T13:06:50;4.88;;;1.00;;
49223;SDS011;35050;51.316;5.994;2023-09-19T13:09:19;3.10;;;1.05;;
49223;SDS011;35050;51.316;5.994;2023-09-19T13:11:46;7.60;;;1.10;;
49223;SDS011;35050;51.316;5.994;2023-09-19T13:14:26;3.90;;;0.82;;
49223;SDS011;35050;51.316;5.994;2023-09-19T13:17:05;4.68;;;1.15;;
49223;SDS011;35050;51.316;5.994;2023-09-19T13:19:48;1.58;;;0.77;;
49223;SDS011;35050;51.316;5.994;2023-09-19T13:25:19;3.83;;;0.85;;
49223;SDS011;35050;51.316;5.994;2023-09-19T13:27:49;1.88;;;0.82;;
49223;SDS011;35050;51.316;5.994;2023-09-19T13:30:17;5.03;;;1.55;;
49223;SDS011;35050;51.316;5.994;2023-09-19T13:32:44;3.80;;;1.10;;
49223;SDS011;35050;51.316;5.994;2023-09-19T13:35:12;2.67;;;0.90;;
49223;SDS011;35050;51.316;5.994;2023-09-19T13:37:39;3.53;;;0.82;;
49223;SDS011;35050;51.316;5.994;2023-09-19T13:40:11;4.32;;;0.88;;
49223;SDS011;35050;51.316;5.994;2023-09-19T13:42:39;3.47;;;0.88;;
49223;SDS011;35050;51.316;5.994;2023-09-19T13:45:08;3.35;;;1.15;;
49223;SDS011;35050;51.316;5.994;2023-09-19T13:47:40;3.78;;;1.23;;
49223;SDS011;35050;51.316;5.994;2023-09-19T13:50:06;4.13;;;0.63;;
49223;SDS011;35050;51.316;5.994;2023-09-19T13:52:32;4.32;;;0.90;;
49223;SDS011;35050;51.316;5.994;2023-09-19T13:54:59;2.40;;;1.02;;
49223;SDS011;35050;51.316;5.994;2023-09-19T13:57:27;2.80;;;1.13;;
49223;SDS011;35050;51.316;5.994;2023-09-19T13:59:54;3.70;;;0.90;;
49223;SDS011;35050;51.316;5.994;2023-09-19T14:02:23;2.17;;;0.80;;
49223;SDS011;35050;51.316;5.994;2023-09-19T14:04:49;6.95;;;1.25;;
49223;SDS011;35050;51.316;5.994;2023-09-19T14:07:15;2.38;;;0.90;;
49223;SDS011;35050;51.316;5.994;2023-09-19T14:09:42;2.97;;;0.68;;
49223;SDS011;35050;51.316;5.994;2023-09-19T14:12:08;3.75;;;1.05;;
49223;SDS011;35050;51.316;5.994;2023-09-19T14:14:34;3.20;;;0.80;;
49223;SDS011;35050;51.316;5.994;2023-09-19T14:17:00;3.30;;;0.70;;
49223;SDS011;35050;51.316;5.994;2023-09-19T14:19:28;2.85;;;0.50;;
49223;SDS011;35050;51.316;5.994;2023-09-19T14:21:54;8.40;;;0.70;;
49223;SDS011;35050;51.316;5.994;2023-09-19T14:24:22;3.38;;;0.85;;
49223;SDS011;35050;51.316;5.994;2023-09-19T14:26:48;3.58;;;0.80;;
49223;SDS011;35050;51.316;5.994;2023-09-19T14:29:14;2.92;;;0.70;;
49223;SDS011;35050;51.316;5.994;2023-09-19T14:31:41;2.60;;;0.88;;
49223;SDS011;35050;51.316;5.994;2023-09-19T14:34:07;4.10;;;0.80;;
49223;SDS011;35050;51.316;5.994;2023-09-19T14:36:37;2.08;;;0.98;;
49223;SDS011;35050;51.316;5.994;2023-09-19T14:39:05;2.65;;;0.80;;
49223;SDS011;35050;51.316;5.994;2023-09-19T14:41:31;3.92;;;0.88;;
49223;SDS011;35050;51.316;5.994;2023-09-19T14:43:57;3.35;;;0.90;;
49223;SDS011;35050;51.316;5.994;2023-09-19T14:46:22;3.10;;;0.95;;
49223;SDS011;35050;51.316;5.994;2023-09-19T14:48:51;2.03;;;0.80;;
49223;SDS011;35050;51.316;5.994;2023-09-19T14:51:17;1.77;;;0.70;;
49223;SDS011;35050;51.316;5.994;2023-09-19T14:53:44;2.10;;;0.80;;
49223;SDS011;35050;51.316;5.994;2023-09-19T14:56:11;1.90;;;0.60;;
49223;SDS011;35050;51.316;5.994;2023-09-19T14:58:38;1.33;;;0.57;;
49223;SDS011;35050;51.316;5.994;2023-09-19T15:01:05;2.38;;;0.85;;
49223;SDS011;35050;51.316;5.994;2023-09-19T15:03:35;3.67;;;0.73;;
49223;SDS011;35050;51.316;5.994;2023-09-19T15:06:01;2.30;;;0.82;;
49223;SDS011;35050;51.316;5.994;2023-09-19T15:08:29;3.63;;;0.70;;
49223;SDS011;35050;51.316;5.994;2023-09-19T15:11:02;2.88;;;0.80;;
49223;SDS011;35050;51.316;5.994;2023-09-19T15:13:30;3.28;;;1.05;;
49223;SDS011;35050;51.316;5.994;2023-09-19T15:16:03;3.15;;;0.75;;
49223;SDS011;35050;51.316;5.994;2023-09-19T15:18:33;2.72;;;0.80;;
49223;SDS011;35050;51.316;5.994;2023-09-19T15:21:06;2.17;;;0.70;;
49223;SDS011;35050;51.316;5.994;2023-09-19T15:23:33;2.78;;;1.00;;
49223;SDS011;35050;51.316;5.994;2023-09-19T15:26:18;3.40;;;1.10;;
49223;SDS011;35050;51.316;5.994;2023-09-19T15:28:46;3.63;;;0.93;;
49223;SDS011;35050;51.316;5.994;2023-09-19T15:31:13;2.97;;;0.98;;
49223;SDS011;35050;51.316;5.994;2023-09-19T15:33:39;2.45;;;1.10;;
49223;SDS011;35050;51.316;5.994;2023-09-19T15:36:09;4.30;;;1.10;;
49223;SDS011;35050;51.316;5.994;2023-09-19T15:41:23;3.13;;;1.00;;
49223;SDS011;35050;51.316;5.994;2023-09-19T15:43:50;3.75;;;0.90;;
49223;SDS011;35050;51.316;5.994;2023-09-19T15:46:15;2.25;;;0.98;;
49223;SDS011;35050;51.316;5.994;2023-09-19T15:48:41;2.80;;;1.10;;
49223;SDS011;35050;51.316;5.994;2023-09-19T15:51:07;3.30;;;1.02;;
49223;SDS011;35050;51.316;5.994;2023-09-19T15:53:41;2.08;;;0.90;;
49223;SDS011;35050;51.316;5.994;2023-09-19T15:56:07;5.47;;;1.00;;
49223;SDS011;35050;51.316;5.994;2023-09-19T15:58:32;2.85;;;0.90;;
49223;SDS011;35050;51.316;5.994;2023-09-19T16:01:04;2.80;;;0.93;;
49223;SDS011;35050;51.316;5.994;2023-09-19T16:03:31;2.55;;;1.00;;